Time;durP1;ratioP1;P1;durP2;ratioP2;P2;SDS_P1;SDS_P2;PMS_P1;PMS_P2;Temp;Humidity;BMP_temperature;BMP_pressure;BME280_temperature;BME280_humidity;BME280_pressure;Samples;Min_cycle;Max_cycle;Signal;HPM_P1;HPM_P2
2021/07/16 00:00:16;;;;;;;7.12;1.80;;;;;;;29.94;39.73;99324.00;4482983;32;33438;-65
2021/07/16 00:02:45;;;;;;;3.78;1.87;;;;;;;29.95;39.16;99331.16;4483174;32;33461;-66
2021/07/16 00:05:13;;;;;;;6.62;2.22;;;;;;;29.93;39.02;99333.34;4483133;32;34097;-65
2021/07/16 00:07:40;;;;;;;6.10;2.15;;;;;;;29.93;39.26;99330.59;4485057;32;34995;-65
2021/07/16 00:10:09;;;;;;;5.40;1.87;;;;;;;29.91;39.04;99336.38;4471074;32;34014;-65
2021/07/16 00:12:37;;;;;;;5.25;2.00;;;;;;;29.91;39.06;99332.81;4485234;32;34249;-64
2021/07/16 00:15:05;;;;;;;8.40;2.42;;;;;;;29.90;38.60;99331.16;4485248;32;33134;-65
2021/07/16 00:17:32;;;;;;;9.63;2.00;;;;;;;29.86;38.09;99336.41;4485148;32;33920;-65
2021/07/16 00:20:00;;;;;;;12.75;2.25;;;;;;;29.87;37.99;99329.78;4470802;32;33967;-65
2021/07/16 00:22:27;;;;;;;8.80;2.20;;;;;;;29.87;38.75;99338.03;4485046;32;33460;-65
2021/07/16 00:24:55;;;;;;;4.78;1.98;;;;;;;29.84;37.89;99335.00;4484940;32;34687;-66
2021/07/16 00:27:22;;;;;;;5.97;1.87;;;;;;;29.84;38.57;99337.78;4485059;32;35590;-65
2021/07/16 00:29:50;;;;;;;5.32;2.17;;;;;;;29.85;38.81;99339.44;4470755;32;34614;-65
2021/07/16 00:32:17;;;;;;;5.47;2.60;;;;;;;29.82;38.87;99343.56;4485302;32;33042;-65
2021/07/16 00:34:45;;;;;;;5.57;2.00;;;;;;;29.82;38.34;99340.81;4484993;32;33784;-65
2021/07/16 00:37:12;;;;;;;3.00;1.52;;;;;;;29.81;38.34;99338.34;4484817;32;33642;-65
2021/07/16 00:39:40;;;;;;;3.00;1.70;;;;;;;29.81;38.56;99352.09;4484890;32;34507;-66
2021/07/16 00:42:07;;;;;;;5.80;1.62;;;;;;;29.80;38.30;99347.69;4484092;32;33763;-65
2021/07/16 00:44:35;;;;;;;7.22;2.10;;;;;;;29.79;38.71;99352.34;4484408;32;34716;-65
2021/07/16 00:47:05;;;;;;;3.92;1.70;;;;;;;29.79;38.49;99343.28;4484704;32;35030;-65
2021/07/16 00:49:33;;;;;;;6.18;1.85;;;;;;;29.78;38.28;99344.41;4484810;32;34933;-65
2021/07/16 00:52:01;;;;;;;5.75;2.17;;;;;;;29.78;37.62;99339.72;4484832;32;33373;-66
2021/07/16 00:54:28;;;;;;;4.00;1.90;;;;;;;29.77;37.08;99346.31;4484939;32;33897;-65
2021/07/16 00:56:56;;;;;;;3.60;2.00;;;;;;;29.76;36.90;99338.37;4470759;32;34113;-66
2021/07/16 00:59:23;;;;;;;5.07;1.75;;;;;;;29.75;37.18;99343.03;4457844;32;34984;-65
2021/07/16 01:01:51;;;;;;;5.72;1.92;;;;;;;29.73;37.34;99340.56;4457821;32;33402;-64
2021/07/16 01:04:19;;;;;;;6.47;2.10;;;;;;;29.73;37.39;99337.81;4485013;32;34617;-64
2021/07/16 01:06:47;;;;;;;6.75;1.87;;;;;;;29.73;37.19;99328.75;4470544;32;33735;-65
2021/07/16 01:09:15;;;;;;;6.72;1.83;;;;;;;29.72;37.53;99338.09;4484750;32;35421;-65
2021/07/16 01:11:42;;;;;;;7.43;2.42;;;;;;;29.71;37.83;99331.78;4483689;32;34257;-64
2021/07/16 01:14:10;;;;;;;3.58;1.65;;;;;;;29.71;37.71;99333.72;4470661;32;34592;-65
2021/07/16 01:16:38;;;;;;;4.37;1.77;;;;;;;29.71;37.67;99330.97;4457664;32;33684;-65
2021/07/16 01:19:05;;;;;;;4.72;1.77;;;;;;;29.70;37.95;99327.38;4484617;32;33878;-64
2021/07/16 01:21:33;;;;;;;4.03;1.67;;;;;;;29.70;38.18;99332.03;4470577;32;34410;-66
2021/07/16 01:24:03;;;;;;;7.72;2.15;;;;;;;29.69;38.22;99347.72;4470667;32;33319;-65
2021/07/16 01:26:31;;;;;;;3.78;1.77;;;;;;;29.69;38.42;99342.22;4470550;32;34810;-65
2021/07/16 01:29:02;;;;;;;6.68;2.00;;;;;;;29.70;38.13;99345.78;4470509;32;33601;-65
2021/07/16 01:31:30;;;;;;;3.85;1.85;;;;;;;29.70;38.02;99340.28;4471073;32;33818;-65
2021/07/16 01:33:58;;;;;;;5.53;2.10;;;;;;;29.67;37.83;99344.44;4484489;32;33938;-65
2021/07/16 01:36:25;;;;;;;3.95;2.10;;;;;;;29.67;37.54;99347.19;4470484;32;34010;-64
2021/07/16 01:38:53;;;;;;;9.55;2.03;;;;;;;29.65;37.52;99346.63;4470420;32;34207;-66
2021/07/16 01:41:20;;;;;;;5.57;1.87;;;;;;;29.64;37.71;99342.22;4484405;32;33610;-65
2021/07/16 01:43:48;;;;;;;5.80;2.22;;;;;;;29.65;38.60;99352.13;4484653;32;33944;-65
2021/07/16 01:46:15;;;;;;;7.28;2.10;;;;;;;29.65;38.55;99346.63;4484439;32;33612;-65
2021/07/16 01:48:43;;;;;;;6.45;2.42;;;;;;;29.64;37.69;99333.97;4484481;31;34368;-65
2021/07/16 01:51:10;;;;;;;5.80;2.28;;;;;;;29.62;37.58;99338.13;4484708;32;33072;-65
2021/07/16 01:53:38;;;;;;;4.85;2.37;;;;;;;29.61;37.82;99342.81;4470167;32;33980;-65
2021/07/16 01:56:06;;;;;;;5.45;2.20;;;;;;;29.62;37.82;99340.88;4484386;32;35122;-65
2021/07/16 01:58:34;;;;;;;5.45;2.20;;;;;;;29.61;37.52;99340.06;4484809;32;34854;-65
2021/07/16 02:01:02;;;;;;;3.85;1.95;;;;;;;29.61;37.66;99336.47;4484911;32;33320;-65
2021/07/16 02:03:30;;;;;;;3.87;1.83;;;;;;;29.60;37.29;99335.63;4484345;32;33601;-65
2021/07/16 02:05:59;;;;;;;5.10;1.92;;;;;;;29.60;38.14;99329.31;4484413;32;33994;-65
2021/07/16 02:08:26;;;;;;;5.40;1.80;;;;;;;29.59;37.92;99334.00;4484420;32;34025;-65
2021/07/16 02:10:54;;;;;;;6.20;1.92;;;;;;;29.59;37.93;99325.75;4469980;32;33358;-65
2021/07/16 02:13:25;;;;;;;6.68;2.12;;;;;;;29.58;37.87;99332.38;4484466;32;33878;-64
2021/07/16 02:15:53;;;;;;;5.00;2.03;;;;;;;29.57;37.86;99322.47;4484418;32;34159;-65
2021/07/16 02:18:21;;;;;;;4.75;1.90;;;;;;;29.57;38.12;99316.16;4484141;32;34643;-65
2021/07/16 02:20:49;;;;;;;5.85;1.98;;;;;;;29.57;38.46;99318.91;4470217;32;34019;-65
2021/07/16 02:23:18;;;;;;;4.10;2.03;;;;;;;29.58;38.47;99317.78;4484222;32;34629;-65
2021/07/16 02:25:46;;;;;;;6.00;2.05;;;;;;;29.56;38.63;99315.31;4484270;32;34244;-65
2021/07/16 02:28:15;;;;;;;5.72;2.05;;;;;;;29.58;38.50;99301.31;4483442;32;33493;-65
2021/07/16 02:30:43;;;;;;;8.52;2.30;;;;;;;29.56;38.34;99303.50;4457378;32;33569;-64
2021/07/16 02:33:11;;;;;;;12.02;2.15;;;;;;;29.56;38.16;99303.50;4484239;32;33923;-65
2021/07/16 02:35:38;;;;;;;4.90;1.98;;;;;;;29.55;38.22;99312.84;4484103;32;33889;-65
2021/07/16 02:38:06;;;;;;;8.02;2.10;;;;;;;29.54;37.58;99308.44;4484075;32;33599;-66
2021/07/16 02:40:33;;;;;;;5.62;2.03;;;;;;;29.53;37.67;99321.34;4484152;32;34086;-64
2021/07/16 02:43:02;;;;;;;5.22;1.95;;;;;;;29.53;38.06;99312.28;4484135;32;33884;-66
2021/07/16 02:45:29;;;;;;;6.50;1.75;;;;;;;29.52;38.23;99310.62;4481153;32;78787;-65
2021/07/16 02:47:57;;;;;;;6.07;2.08;;;;;;;29.51;37.87;99308.97;4483996;32;34635;-65
2021/07/16 02:50:27;;;;;;;6.22;2.22;;;;;;;29.51;37.50;99311.72;4484322;32;33510;-64
2021/07/16 02:52:54;;;;;;;5.57;2.00;;;;;;;29.49;37.63;99309.25;4483850;32;34647;-66
2021/07/16 02:55:22;;;;;;;5.20;1.98;;;;;;;29.49;37.68;99315.59;4483998;32;34933;-65
2021/07/16 02:57:50;;;;;;;4.65;2.12;;;;;;;29.49;37.58;99314.75;4469920;32;33940;-65
2021/07/16 03:00:19;;;;;;;4.80;1.90;;;;;;;29.49;37.46;99314.75;4483773;32;33425;-65
2021/07/16 03:02:47;;;;;;;6.35;2.28;;;;;;;29.47;37.35;99312.31;4483803;32;34792;-64
2021/07/16 03:05:22;;;;;;;7.55;2.08;;;;;;;29.48;37.55;99318.62;4468323;32;33681;-65
2021/07/16 03:07:50;;;;;;;4.12;1.73;;;;;;;29.46;37.44;99312.56;4468170;32;33932;-65
2021/07/16 03:10:22;;;;;;;4.43;1.77;;;;;;;29.46;37.42;99304.31;4468090;32;33713;-65
2021/07/16 03:12:50;;;;;;;14.32;2.50;;;;;;;29.44;37.19;99301.03;4467928;32;34642;-65
2021/07/16 03:15:20;;;;;;;5.10;2.40;;;;;;;29.44;37.17;99312.84;4453892;32;35524;-66
2021/07/16 03:17:47;;;;;;;12.75;2.53;;;;;;;29.43;36.97;99315.87;4468330;32;34324;-64
2021/07/16 03:20:23;;;;;;;6.07;2.08;;;;;;;29.43;37.15;99315.87;4467863;32;33608;-66
2021/07/16 03:22:51;;;;;;;5.62;2.45;;;;;;;29.41;37.60;99310.66;4478404;32;34704;-65
2021/07/16 03:25:19;;;;;;;10.68;2.28;;;;;;;29.41;37.56;99307.06;4483633;32;34957;-65
2021/07/16 03:27:47;;;;;;;12.18;2.62;;;;;;;29.41;37.53;99304.31;4483327;32;33080;-65
2021/07/16 03:30:16;;;;;;;9.10;2.50;;;;;;;29.40;37.48;99300.75;4483538;32;33139;-65
2021/07/16 03:32:44;;;;;;;5.12;2.20;;;;;;;29.39;37.17;99293.63;4483496;32;34883;-64
2021/07/16 03:35:11;;;;;;;3.83;1.73;;;;;;;29.40;37.04;99291.69;4483369;32;33741;-65
2021/07/16 03:37:39;;;;;;;5.95;1.92;;;;;;;29.37;37.00;99301.31;4469220;32;33514;-66
2021/07/16 03:40:09;;;;;;;3.97;2.10;;;;;;;29.38;36.91;99304.91;4484237;32;34199;-66
2021/07/16 03:42:37;;;;;;;7.30;2.20;;;;;;;29.37;37.38;99306.81;4485492;32;33893;-66
2021/07/16 03:45:06;;;;;;;3.53;2.00;;;;;;;29.38;37.27;99302.16;4485321;32;35257;-64
2021/07/16 03:47:33;;;;;;;3.97;1.90;;;;;;;29.36;37.13;99313.41;4485246;32;33953;-65
2021/07/16 03:50:00;;;;;;;6.75;2.15;;;;;;;29.37;38.02;99309.56;4485587;32;34137;-65
2021/07/16 03:52:28;;;;;;;4.60;2.00;;;;;;;29.38;38.10;99321.41;4483807;32;34655;-65
2021/07/16 03:54:56;;;;;;;5.93;1.90;;;;;;;29.36;37.82;99323.56;4475811;32;34230;-62
2021/07/16 03:57:23;;;;;;;3.62;1.92;;;;;;;29.37;37.88;99330.72;4469701;32;33817;-64
2021/07/16 03:59:51;;;;;;;6.10;2.00;;;;;;;29.35;37.30;99321.94;4469588;32;34112;-66
2021/07/16 04:02:18;;;;;;;6.62;1.95;;;;;;;29.35;37.22;99325.50;4483249;32;33691;-62
2021/07/16 04:04:51;;;;;;;5.22;1.87;;;;;;;29.34;37.29;99332.09;4485330;32;34089;-62
2021/07/16 04:07:22;;;;;;;8.57;2.03;;;;;;;29.34;37.17;99334.03;4485210;32;33884;-62
2021/07/16 04:09:50;;;;;;;4.00;2.10;;;;;;;29.33;37.30;99327.72;4485076;32;33531;-62
2021/07/16 04:12:20;;;;;;;4.55;2.00;;;;;;;29.33;37.39;99335.97;4470340;32;33896;-62
2021/07/16 04:14:48;;;;;;;;;;;;;;;29.34;38.19;99345.03;4456195;32;34925;-62
2021/07/16 04:17:23;;;;;;;4.57;2.05;;;;;;;29.44;37.52;99353.25;4469452;32;34866;-62
2021/07/16 04:19:50;;;;;;;4.62;2.15;;;;;;;29.36;37.52;99356.56;4469556;32;33206;-62
2021/07/16 04:22:19;;;;;;;6.55;2.30;;;;;;;29.33;37.64;99363.44;4469325;32;33884;-62
2021/07/16 04:24:46;;;;;;;5.22;2.00;;;;;;;29.32;37.65;99358.22;4469890;32;34896;-61
2021/07/16 04:27:13;;;;;;;5.65;1.83;;;;;;;29.31;37.36;99356.56;4469518;32;33906;-62
2021/07/16 04:29:42;;;;;;;6.57;2.15;;;;;;;29.31;37.57;99359.31;4469349;32;33356;-62
2021/07/16 04:32:09;;;;;;;3.83;1.70;;;;;;;29.31;37.73;99353.81;4469491;32;34022;-62
2021/07/16 04:34:38;;;;;;;6.40;2.30;;;;;;;29.31;38.33;99356.56;4469428;32;34157;-61
2021/07/16 04:37:06;;;;;;;6.70;2.62;;;;;;;29.31;38.39;99364.81;4455337;32;34312;-62
2021/07/16 04:39:34;;;;;;;9.35;2.47;;;;;;;29.30;37.85;99354.94;4469477;32;34100;-61
2021/07/16 04:42:01;;;;;;;7.47;2.28;;;;;;;29.30;37.91;99354.94;4455415;32;34921;-62
2021/07/16 04:44:30;;;;;;;5.53;2.50;;;;;;;29.30;37.76;99355.75;4469075;32;33978;-62
2021/07/16 04:46:58;;;;;;;4.72;2.28;;;;;;;29.30;38.16;99361.25;4472035;32;34021;-62
2021/07/16 04:49:26;;;;;;;5.40;2.40;;;;;;;29.31;37.85;99368.37;4470901;32;34250;-61
2021/07/16 04:51:53;;;;;;;7.60;2.00;;;;;;;29.31;38.09;99362.88;4484274;32;34654;-62
2021/07/16 04:54:22;;;;;;;4.05;1.98;;;;;;;29.30;38.13;99365.91;4484998;32;33985;-62
2021/07/16 04:56:49;;;;;;;6.62;2.42;;;;;;;29.30;38.16;99369.50;4485034;32;34170;-62
2021/07/16 04:59:17;;;;;;;6.40;2.25;;;;;;;29.30;38.09;99363.16;4484696;32;34482;-62
2021/07/16 05:01:44;;;;;;;8.82;2.37;;;;;;;29.30;37.88;99366.75;4484998;32;34771;-62
2021/07/16 05:04:17;;;;;;;8.02;2.40;;;;;;;29.30;38.12;99365.91;4484932;32;34158;-61
2021/07/16 05:06:44;;;;;;;6.47;2.12;;;;;;;29.31;38.02;99371.13;4484710;32;33931;-62
2021/07/16 05:09:12;;;;;;;5.68;2.37;;;;;;;29.30;37.98;99363.16;4484867;32;33510;-62
2021/07/16 05:11:40;;;;;;;5.47;2.45;;;;;;;29.31;38.11;99368.37;4470819;32;33912;-65
2021/07/16 05:14:07;;;;;;;7.90;2.58;;;;;;;29.31;38.02;99365.62;4484714;32;34323;-64
2021/07/16 05:16:34;;;;;;;5.00;2.25;;;;;;;29.30;37.92;99363.16;4484801;32;33130;-64
2021/07/16 05:19:02;;;;;;;6.53;2.10;;;;;;;29.31;37.87;99368.37;4484899;32;33470;-65
2021/07/16 05:21:32;;;;;;;6.55;2.08;;;;;;;29.31;37.95;99368.37;4484685;32;33930;-65
2021/07/16 05:24:00;;;;;;;5.22;2.75;;;;;;;29.31;37.97;99373.88;4484767;32;34128;-64
2021/07/16 05:26:28;;;;;;;5.00;1.98;;;;;;;29.34;37.89;99381.56;4484687;32;34101;-64
2021/07/16 05:28:55;;;;;;;5.20;2.08;;;;;;;29.31;37.88;99379.38;4484780;32;33245;-65
2021/07/16 05:31:23;;;;;;;9.07;2.22;;;;;;;29.34;37.91;99383.50;4484766;32;34124;-65
2021/07/16 05:33:51;;;;;;;8.75;2.17;;;;;;;29.35;37.98;99382.41;4484660;32;34020;-65
2021/07/16 05:36:18;;;;;;;7.95;2.10;;;;;;;29.34;37.99;99381.56;4484714;32;34085;-66
2021/07/16 05:38:46;;;;;;;8.23;2.22;;;;;;;29.34;38.10;99378.81;4484718;32;33609;-65
2021/07/16 05:41:13;;;;;;;3.47;1.85;;;;;;;29.34;38.18;99387.06;4484541;32;33964;-65
2021/07/16 05:43:41;;;;;;;7.03;2.30;;;;;;;29.34;38.15;99384.31;4484675;32;34853;-66
2021/07/16 05:46:08;;;;;;;8.00;2.17;;;;;;;29.35;38.15;99385.97;4484868;32;34599;-63
2021/07/16 05:48:36;;;;;;;7.10;2.22;;;;;;;29.35;38.13;99391.47;4470698;32;34251;-63
2021/07/16 05:51:03;;;;;;;6.43;2.28;;;;;;;29.35;37.96;99396.97;4468953;32;34079;-63
2021/07/16 05:53:31;;;;;;;4.85;2.10;;;;;;;29.35;38.18;99390.63;4468925;32;34349;-66
2021/07/16 05:55:59;;;;;;;13.45;2.90;;;;;;;29.36;38.24;99397.78;4468712;32;34676;-64
2021/07/16 05:58:27;;;;;;;7.43;3.45;;;;;;;29.35;38.25;99394.22;4468936;32;33898;-62
2021/07/16 06:00:55;;;;;;;7.68;2.58;;;;;;;29.37;38.37;99388.44;4468730;32;34450;-62
2021/07/16 06:03:23;;;;;;;15.15;2.72;;;;;;;29.36;38.38;99382.09;4467667;32;34002;-67
2021/07/16 06:05:50;;;;;;;9.40;2.55;;;;;;;29.36;38.42;99384.84;4468822;32;34091;-67
2021/07/16 06:08:18;;;;;;;12.10;3.37;;;;;;;29.37;38.78;99386.50;4468834;32;33427;-67
2021/07/16 06:10:45;;;;;;;10.80;3.25;;;;;;;29.37;38.60;99386.50;4468671;32;34020;-67
2021/07/16 06:13:13;;;;;;;15.52;3.53;;;;;;;29.37;38.47;99389.25;4468972;32;34779;-65
2021/07/16 06:15:40;;;;;;;10.27;3.20;;;;;;;29.35;38.10;99385.16;4468793;32;33894;-65
2021/07/16 06:18:08;;;;;;;10.15;3.75;;;;;;;29.35;38.12;99382.41;4468655;32;34311;-66
2021/07/16 06:20:35;;;;;;;13.82;4.45;;;;;;;29.31;38.26;99384.03;4468615;32;34675;-61
2021/07/16 06:23:03;;;;;;;8.20;3.90;;;;;;;29.30;38.44;99374.97;4468763;32;34276;-61
2021/07/16 06:25:31;;;;;;;11.12;3.85;;;;;;;29.29;38.54;99369.78;4468230;32;34816;-63
2021/07/16 06:27:58;;;;;;;13.93;4.43;;;;;;;29.27;38.89;99367.28;4468811;32;34441;-63
2021/07/16 06:30:26;;;;;;;13.35;4.57;;;;;;;29.28;39.01;99368.09;4468560;32;34786;-62
2021/07/16 06:32:53;;;;;;;14.57;4.45;;;;;;;29.30;39.09;99371.41;4468316;32;33992;-64
2021/07/16 06:35:21;;;;;;;11.52;4.53;;;;;;;29.29;39.09;99370.59;4468437;32;34771;-63
2021/07/16 06:37:49;;;;;;;9.25;4.32;;;;;;;29.30;39.04;99371.41;4468522;32;33488;-62
2021/07/16 06:40:16;;;;;;;7.60;4.10;;;;;;;29.31;39.04;99375.81;4468177;32;34668;-63
2021/07/16 06:42:44;;;;;;;10.05;4.28;;;;;;;29.31;39.03;99382.13;4468546;32;34841;-64
2021/07/16 06:45:11;;;;;;;9.27;4.10;;;;;;;29.34;39.02;99375.25;4473780;32;33083;-62
2021/07/16 06:47:39;;;;;;;6.95;4.03;;;;;;;29.34;39.02;99380.75;4456890;32;33530;-61
2021/07/16 06:50:07;;;;;;;8.10;4.10;;;;;;;29.34;39.02;99384.31;4483811;32;33886;-64
2021/07/16 06:52:35;;;;;;;11.85;4.25;;;;;;;29.35;39.04;99385.97;4483922;32;33943;-64
2021/07/16 06:55:03;;;;;;;9.13;4.05;;;;;;;29.36;39.05;99381.28;4469749;32;33613;-62
2021/07/16 06:57:30;;;;;;;11.27;4.62;;;;;;;29.37;39.08;99391.19;4484034;32;33131;-62
2021/07/16 06:59:57;;;;;;;10.70;4.10;;;;;;;29.38;39.09;99392.84;4483828;32;33907;-62
2021/07/16 07:02:25;;;;;;;6.87;3.90;;;;;;;29.37;39.11;99392.00;4483727;32;33867;-63
2021/07/16 07:04:53;;;;;;;8.95;3.62;;;;;;;29.39;39.13;99389.81;4483815;32;34598;-62
2021/07/16 07:07:21;;;;;;;8.18;4.00;;;;;;;29.39;39.16;99380.75;4483873;32;32745;-64
2021/07/16 07:09:49;;;;;;;8.45;3.85;;;;;;;29.40;39.15;99377.72;4483634;32;33904;-62
2021/07/16 07:12:16;;;;;;;12.37;3.65;;;;;;;29.41;39.16;99373.84;4482832;32;34092;-62
2021/07/16 07:14:43;;;;;;;7.53;3.92;;;;;;;29.43;39.18;99368.09;4483354;32;34048;-64
2021/07/16 07:17:11;;;;;;;5.68;3.35;;;;;;;29.43;39.20;99365.34;4485552;32;34559;-64
2021/07/16 07:19:38;;;;;;;7.05;3.47;;;;;;;29.42;39.27;99370.00;4485684;32;34668;-64
2021/07/16 07:22:06;;;;;;;8.57;3.83;;;;;;;29.44;39.26;99373.31;4485649;32;34077;-64
2021/07/16 07:24:34;;;;;;;8.35;4.57;;;;;;;29.45;39.25;99372.22;4485366;32;34505;-64
2021/07/16 07:27:01;;;;;;;9.57;3.72;;;;;;;29.45;39.25;99366.72;4485405;32;33513;-65
2021/07/16 07:29:32;;;;;;;7.72;3.97;;;;;;;29.47;39.27;99370.03;4485514;32;33688;-64
2021/07/16 07:31:59;;;;;;;7.22;3.75;;;;;;;29.47;39.29;99371.91;4485481;32;33949;-64
2021/07/16 07:34:27;;;;;;;8.68;3.95;;;;;;;29.48;39.26;99373.59;4485562;32;34447;-64
2021/07/16 07:36:54;;;;;;;7.22;3.37;;;;;;;29.48;39.30;99374.41;4485592;32;33049;-64
2021/07/16 07:39:23;;;;;;;9.15;3.35;;;;;;;29.49;39.31;99375.22;4485174;32;33612;-64
2021/07/16 07:41:53;;;;;;;6.72;3.35;;;;;;;29.50;39.31;99365.88;4485541;32;34201;-64
2021/07/16 07:44:21;;;;;;;8.32;3.72;;;;;;;29.50;39.31;99368.63;4485282;32;35214;-64
2021/07/16 07:46:49;;;;;;;7.75;3.87;;;;;;;29.51;39.35;99361.19;4483479;32;33214;-64
2021/07/16 07:49:17;;;;;;;6.82;3.42;;;;;;;29.50;39.35;99365.88;4469639;32;33555;-64
2021/07/16 07:51:45;;;;;;;6.82;3.62;;;;;;;29.52;39.34;99360.94;4469584;32;33699;-64
2021/07/16 07:54:13;;;;;;;6.93;3.77;;;;;;;29.52;39.34;99365.59;4470370;32;33995;-64
2021/07/16 07:56:40;;;;;;;6.25;3.47;;;;;;;29.52;39.36;99360.94;4476544;32;33374;-63
2021/07/16 07:59:08;;;;;;;6.50;3.30;;;;;;;29.52;39.37;99363.69;4485216;32;35059;-63
2021/07/16 08:01:35;;;;;;;7.65;3.22;;;;;;;29.53;39.38;99361.75;4475025;32;33961;-64
2021/07/16 08:04:04;;;;;;;8.82;3.78;;;;;;;29.54;39.40;99366.16;4469522;32;33686;-64
2021/07/16 08:06:36;;;;;;;6.12;3.42;;;;;;;29.53;39.40;99365.34;4469490;32;34606;-65
2021/07/16 08:09:04;;;;;;;7.15;3.35;;;;;;;29.55;39.43;99365.06;4469472;32;34727;-64
2021/07/16 08:11:32;;;;;;;7.05;3.40;;;;;;;29.54;39.45;99361.47;4479458;32;33591;-66
2021/07/16 08:13:59;;;;;;;7.40;3.78;;;;;;;29.54;39.47;99358.72;4484677;32;33911;-65
2021/07/16 08:16:27;;;;;;;6.75;3.60;;;;;;;29.55;39.45;99365.91;4485206;32;34539;-64
2021/07/16 08:18:55;;;;;;;6.57;3.22;;;;;;;29.56;39.47;99366.72;4484952;32;34669;-64
2021/07/16 08:21:23;;;;;;;5.55;3.65;;;;;;;29.56;39.48;99361.22;4484993;32;35313;-65
2021/07/16 08:23:50;;;;;;;6.93;3.50;;;;;;;29.57;39.50;99366.47;4484959;32;33857;-65
2021/07/16 08:26:19;;;;;;;6.12;3.87;;;;;;;29.56;39.50;99367.53;4484325;32;33403;-65
2021/07/16 08:28:51;;;;;;;7.90;3.40;;;;;;;29.57;39.50;99366.47;4484862;32;33994;-64
2021/07/16 08:31:19;;;;;;;6.03;3.30;;;;;;;29.57;39.50;99369.22;4485225;32;34253;-66
2021/07/16 08:33:47;;;;;;;4.97;3.30;;;;;;;29.57;39.54;99368.37;4484772;32;33920;-65
2021/07/16 08:36:14;;;;;;;6.47;3.47;;;;;;;29.58;39.55;99370.03;4485098;32;33317;-65
2021/07/16 08:38:45;;;;;;;5.20;3.25;;;;;;;29.58;39.55;99365.34;4484770;32;34446;-65
2021/07/16 08:41:13;;;;;;;6.28;3.15;;;;;;;29.59;39.57;99367.00;4484830;32;34145;-66
2021/07/16 08:43:41;;;;;;;8.35;3.47;;;;;;;29.59;39.57;99366.16;4485091;32;34767;-66
2021/07/16 08:46:09;;;;;;;5.37;2.90;;;;;;;29.59;39.59;99367.00;4484868;32;33448;-65
2021/07/16 08:48:38;;;;;;;6.35;3.53;;;;;;;29.59;39.62;99372.50;4484394;32;33870;-65
2021/07/16 08:51:06;;;;;;;8.07;3.40;;;;;;;29.60;39.60;99368.63;4484556;32;34802;-66
2021/07/16 08:53:33;;;;;;;7.70;2.97;;;;;;;29.60;39.62;99367.81;4484531;32;34692;-66
2021/07/16 08:56:01;;;;;;;7.10;3.20;;;;;;;29.60;39.64;99367.81;4484423;32;34461;-66
2021/07/16 08:58:29;;;;;;;6.18;3.00;;;;;;;29.60;39.66;99368.63;4484920;32;33903;-65
2021/07/16 09:00:56;;;;;;;5.90;3.58;;;;;;;29.61;39.67;99369.44;4484550;32;34066;-66
2021/07/16 09:03:24;;;;;;;8.55;3.03;;;;;;;29.61;39.70;99369.44;4484918;32;33529;-66
2021/07/16 09:06:00;;;;;;;5.10;2.83;;;;;;;29.61;39.71;99363.97;4484993;32;34480;-66
2021/07/16 09:08:28;;;;;;;7.22;3.37;;;;;;;29.62;39.69;99362.88;4484864;32;34355;-66
2021/07/16 09:10:59;;;;;;;5.75;3.42;;;;;;;29.62;39.72;99362.88;4484349;32;34174;-65
2021/07/16 09:13:31;;;;;;;6.40;3.22;;;;;;;29.61;39.74;99367.56;4484793;32;33974;-66
2021/07/16 09:16:02;;;;;;;5.07;2.95;;;;;;;29.62;39.77;99360.13;4458008;32;33625;-66
2021/07/16 09:18:30;;;;;;;5.90;3.53;;;;;;;29.64;39.75;99360.66;4485011;32;34036;-65
2021/07/16 09:21:01;;;;;;;4.97;3.00;;;;;;;29.64;39.77;99363.41;4484489;32;34961;-64
2021/07/16 09:23:34;;;;;;;5.30;3.17;;;;;;;29.63;39.79;99359.03;4484692;32;33756;-65
2021/07/16 09:26:10;;;;;;;5.03;3.08;;;;;;;29.64;39.78;99361.47;4484581;32;33944;-67
2021/07/16 09:28:40;;;;;;;6.32;3.65;;;;;;;29.64;39.80;99366.97;4484541;32;34495;-65
2021/07/16 09:31:19;;;;;;;5.03;3.30;;;;;;;29.64;39.83;99360.66;4457607;32;33959;-65
2021/07/16 09:33:51;;;;;;;5.90;3.35;;;;;;;29.66;39.82;99364.78;4484727;32;34977;-66
2021/07/16 09:36:35;;;;;;;5.47;3.30;;;;;;;29.66;39.86;99366.72;4484644;32;33531;-65
2021/07/16 09:39:05;;;;;;;4.97;3.10;;;;;;;29.67;39.83;99376.59;4470309;32;34744;-65
2021/07/16 09:41:32;;;;;;;5.07;3.20;;;;;;;29.65;39.87;99367.78;4484341;32;34085;-64
2021/07/16 09:44:03;;;;;;;5.80;3.33;;;;;;;29.66;39.88;99367.53;4484666;32;34769;-66
2021/07/16 09:46:31;;;;;;;4.85;2.87;;;;;;;29.65;39.90;99362.31;4484603;32;33615;-66
2021/07/16 09:49:12;;;;;;;3.97;2.80;;;;;;;29.65;39.90;99365.88;4484380;31;33966;-66
2021/07/16 09:51:41;;;;;;;4.87;2.95;;;;;;;29.68;39.88;99361.75;4484409;32;34250;-66
2021/07/16 09:54:12;;;;;;;5.85;2.92;;;;;;;29.65;39.93;99365.88;4484367;32;33508;-66
2021/07/16 09:56:39;;;;;;;4.68;2.95;;;;;;;29.66;39.92;99362.03;4484588;32;34548;-64
2021/07/16 09:59:13;;;;;;;4.62;2.83;;;;;;;29.66;39.93;99361.22;4484277;32;33224;-66
2021/07/16 10:01:42;;;;;;;5.00;2.90;;;;;;;29.67;39.95;99368.37;4470183;32;34924;-66
2021/07/16 10:04:21;;;;;;;5.07;2.80;;;;;;;29.66;39.96;99355.72;4483584;32;33728;-64
2021/07/16 10:06:51;;;;;;;4.85;3.10;;;;;;;29.67;39.93;99355.44;4476307;32;33409;-64
2021/07/16 10:09:22;;;;;;;4.57;2.80;;;;;;;29.67;39.97;99354.63;4484095;32;33980;-64
2021/07/16 10:11:54;;;;;;;4.43;2.72;;;;;;;29.67;39.96;99352.69;4472778;32;33556;-64
2021/07/16 10:14:21;;;;;;;5.32;2.70;;;;;;;29.69;39.98;99349.66;4478393;31;34600;-65
2021/07/16 10:16:51;;;;;;;5.32;2.62;;;;;;;29.68;40.00;99351.56;4484596;32;33507;-65
2021/07/16 10:19:29;;;;;;;;;;;;;;;;;;;;;
2021/07/16 10:21:57;;;;;;;4.87;2.95;;;;;;;29.68;40.00;99345.25;4464524;32;34776;-65
2021/07/16 10:24:26;;;;;;;4.65;2.85;;;;;;;29.69;40.00;99341.41;4457062;32;34741;-64
2021/07/16 10:27:16;;;;;;;4.97;2.92;;;;;;;29.68;40.04;99348.81;4447414;32;33441;-65
2021/07/16 10:29:45;;;;;;;5.35;2.90;;;;;;;29.70;40.05;99354.03;4441554;32;34323;-65
2021/07/16 10:32:32;;;;;;;;;;;;;;;29.68;40.08;99346.06;4468912;32;34102;-65
2021/07/16 10:35:21;;;;;;;4.50;2.60;;;;;;;29.81;39.84;99350.16;4482330;32;34258;-64
2021/07/16 10:37:50;;;;;;;5.72;2.92;;;;;;;29.74;40.01;99349.62;4484223;32;34276;-65
2021/07/16 10:40:44;;;;;;;4.65;2.78;;;;;;;29.69;40.11;99342.22;4481804;32;33980;-65
2021/07/16 10:43:30;;;;;;;4.55;2.90;;;;;;;29.72;40.06;99352.66;4466161;32;33609;-65
2021/07/16 10:46:01;;;;;;;5.43;3.30;;;;;;;29.71;40.12;99350.22;4468242;32;33974;-65
2021/07/16 10:48:35;;;;;;;4.85;2.87;;;;;;;29.68;40.18;99340.56;4454259;32;33388;-65
2021/07/16 10:51:03;;;;;;;4.03;2.75;;;;;;;29.68;40.17;99353.50;4468057;32;33934;-65
2021/07/16 10:53:31;;;;;;;4.07;2.80;;;;;;;29.68;40.19;99348.00;4468191;32;34110;-65
2021/07/16 10:55:58;;;;;;;5.05;2.72;;;;;;;29.68;40.21;99346.06;4468183;32;33908;-65
2021/07/16 10:58:45;;;;;;;5.62;2.67;;;;;;;29.69;40.21;99352.41;4468117;32;33670;-65
2021/07/16 11:01:13;;;;;;;5.18;2.78;;;;;;;29.69;40.16;99338.66;4468078;32;33938;-65
2021/07/16 11:03:45;;;;;;;6.45;3.10;;;;;;;29.70;39.88;99337.53;4468214;32;34186;-66
2021/07/16 11:06:14;;;;;;;5.37;2.97;;;;;;;29.68;40.02;99332.31;4468251;32;33974;-65
2021/07/16 11:08:41;;;;;;;7.37;2.85;;;;;;;29.70;40.14;99341.12;4468076;32;34150;-65
2021/07/16 11:11:12;;;;;;;4.82;2.90;;;;;;;29.70;39.95;99326.53;4468084;32;34612;-65
2021/07/16 11:13:51;;;;;;;4.72;2.83;;;;;;;29.71;40.09;99337.28;4468033;32;35100;-65
2021/07/16 11:16:23;;;;;;;5.80;2.90;;;;;;;29.72;39.96;99329.84;4468113;32;33956;-66
2021/07/16 11:19:07;;;;;;;4.70;2.70;;;;;;;29.72;39.93;99327.09;4468144;32;33421;-65
2021/07/16 11:21:41;;;;;;;4.47;2.90;;;;;;;29.72;39.91;99330.66;4468027;32;33956;-64
2021/07/16 11:24:14;;;;;;;3.45;2.28;;;;;;;29.72;39.94;99329.84;4467856;32;33988;-63
2021/07/16 11:26:52;;;;;;;9.77;3.00;;;;;;;29.74;39.95;99333.13;4467572;32;34770;-64
2021/07/16 11:29:31;;;;;;;7.30;3.33;;;;;;;29.74;39.86;99330.37;4467807;32;33895;-63
2021/07/16 11:32:05;;;;;;;8.20;3.10;;;;;;;29.74;39.66;99320.19;4467667;32;34044;-63
2021/07/16 11:34:33;;;;;;;8.73;3.12;;;;;;;29.75;39.82;99326.53;4467764;32;33538;-63
2021/07/16 11:37:03;;;;;;;8.90;2.60;;;;;;;29.76;39.96;99321.88;4467585;32;34099;-64
2021/07/16 11:39:38;;;;;;;9.88;3.15;;;;;;;29.77;39.87;99323.50;4467710;32;34063;-63
2021/07/16 11:42:07;;;;;;;11.15;3.10;;;;;;;29.77;39.87;99318.00;4467619;32;33908;-63